03h22 EDT


 

Suivi/Infos de l'aéroport


-ou-


 

Suivi des vols en temps réelTradewind #590

Thumbnail
Tradewind 590
GPD590 · "Goodspeed" (tous les vols)
Nantucket Memorial ()
Teterboro ()
15h04 EDT
15h57 EDT
Prévu: 18h00 EDT
Moyenne: 17h22 EDT
Prévu: 19h05 EDT
Moyenne: 18h11 EDT
Durée: 53 minutes
lundi, 21 juillet 2014
Statut A atterri il y a plus de 11 heures (journal de vol & graphique)
Avion Pilatus PC-12 (monoturbopropulseur) (PC12/G – photos)
Vitesse Plan de vol: 250 kts (graphique)
Altitude Plan de vol: 10.000 Pieds (graphique)
Distance En ligne droite 339 km    Prévue 348 km    Parcourue 428 km
Route V146 PVD V167 HFD V3 CMK V623 SAX (Décoder)
JOURNAL DE L'ACTIVITE
Vous voulez une recherche complète sur l'historique de GPD590 depuis 1998? Achetez maintenant. Recevez-le dans l'heure.
Date Avion Provenance Destination Départ Arrivée Durée
21-07-2014 PC12Nantucket Memorial ()Teterboro () 18h06 EDT 18h55 EDT 0:49
21-07-2014 PC12/GTeterboro ()Nantucket Memorial () 16h38 EDT 17h33 EDT 0:55
21-07-2014 PC12/GNantucket Memorial ()Teterboro () 15h04 EDT 15h57 EDT 0:53
21-07-2014 PC12/GTeterboro ()Nantucket Memorial () 12h14 EDT 12h49 EDT 0:35
21-07-2014 PC12Nantucket Memorial ()Teterboro () 10h19 EDT 11h14 EDT 0:55
21-07-2014 PC12/GTeterboro ()Nantucket Memorial () 08h34 EDT 09h31 EDT 0:56
21-07-2014 PC12/GNantucket Memorial ()Teterboro () 07h06 EDT 07h57 EDT 0:51
21-07-2014 PC12Hartford-Brainard ()Nantucket Memorial () 05h33 EDT 06h19 EDT 0:46
20-07-2014 PC12Int'l de Bangor ()Westchester County () 19h06 EDT 20h40 EDT 1:34
20-07-2014 PC12Int'l de Bangor ()Huron Rgnl () 19h06 EDT Dérouté
20-07-2014 PC12/GPort Hawkesbury ()Int'l de Bangor () 18h02 ADT 18h28 EDT 1:25
17-07-2014 PC12/RInt'l Stanfield d'Halifax ()Port Hawkesbury () 11h09 ADT 11h49 ADT 0:40
17-07-2014 PC12/GWestchester County ()Int'l Stanfield d'Halifax () 07h21 EDT 10h31 ADT 2:10
15-07-2014 PC12/LTeterboro ()Waterbury-Oxford () 09h52 EDT 10h16 EDT 0:24
15-07-2014 PC12/LNantucket Memorial ()Teterboro () 08h01 EDT 09h06 EDT 1:05
14-07-2014 PC12/LTeterboro ()Nantucket Memorial () 16h47 EDT 17h44 EDT 0:56
14-07-2014 PC12/LNantucket Memorial ()Teterboro () 15h01 EDT 16h14 EDT 1:13
14-07-2014 PC12Teterboro ()Nantucket Memorial () 12h38 EDT 13h45 EDT 1:06
14-07-2014 PC12Nantucket Memorial ()Teterboro () 10h47 EDT 11h58 EDT 1:11
14-07-2014 PC12/GTeterboro ()Nantucket Memorial () 09h28 EDT 10h24 EDT 0:56
14-07-2014 PC12/GNantucket Memorial ()Teterboro () 07h17 EDT 08h24 EDT 1:07
14-07-2014 PC12/GWaterbury-Oxford ()Nantucket Memorial () 06h03 EDT 06h42 EDT 0:39
13-07-2014 PC12Nantucket Memorial ()Teterboro () 20h01 EDT 20h55 EDT 0:54
13-07-2014 PC12Teterboro ()Nantucket Memorial () 18h27 EDT 19h11 EDT 0:43
13-07-2014 PC12Nantucket Memorial ()Teterboro () 17h00 EDT 17h52 EDT 0:52
13-07-2014 PC12Teterboro ()Nantucket Memorial () 14h57 EDT 15h39 EDT 0:41
13-07-2014 PC12Nantucket Memorial ()Teterboro () 13h34 EDT 14h27 EDT 0:53
11-07-2014 PC12Teterboro ()Nantucket Memorial () 18h59 EDT 19h57 EDT 0:57
11-07-2014 PC12Nantucket Memorial ()Teterboro () 17h13 EDT 18h02 EDT 0:49
11-07-2014 PC12Teterboro ()Nantucket Memorial () 15h54 EDT 16h50 EDT 0:55
11-07-2014 PC12Nantucket Memorial ()Teterboro () 14h03 EDT 14h52 EDT 0:49
11-07-2014 PC12Teterboro ()Nantucket Memorial () 12h14 EDT 12h58 EDT 0:43
11-07-2014 PC12/GNantucket Memorial ()Teterboro () 10h44 EDT 11h36 EDT 0:52
11-07-2014 PC12/GTeterboro ()Nantucket Memorial () 09h00 EDT 09h48 EDT 0:48
10-07-2014 PC12Marthas Vineyard ()Teterboro () 20h15 EDT 21h00 EDT 0:45
10-07-2014 PC12/GTeterboro ()Marthas Vineyard () 19h12 EDT 19h50 EDT 0:37
10-07-2014 PC12/GMarthas Vineyard ()Teterboro () 16h55 EDT 17h41 EDT 0:46
10-07-2014 PC12/GWaterbury-Oxford ()Teterboro () 14h20 EDT 14h35 EDT (?) 0:14
Les membres inscrits (l'inscription est gratuite et facile!) voient 4 months d'historique. S'inscrire